createdAt,value
2019-04-27T00:00:00.119Z,75.49
2019-04-27T00:02:41.609Z,74.80
2019-04-27T00:05:32.497Z,75.64
2019-04-27T00:08:24.039Z,75.62
2019-04-27T00:11:24.380Z,76.40
2019-04-27T00:13:53.858Z,76.50
2019-04-27T00:16:54.090Z,75.48
2019-04-27T00:19:55.702Z,74.60
2019-04-27T00:22:29.759Z,75.38
2019-04-27T00:25:00.489Z,75.34
2019-04-27T00:27:33.495Z,75.04
2019-04-27T00:30:08.668Z,75.65
2019-04-27T00:32:41.014Z,76.01
2019-04-27T00:35:13.743Z,76.12
2019-04-27T00:37:57.063Z,75.31
2019-04-27T00:40:31.252Z,75.95
2019-04-27T00:43:02.994Z,74.79
2019-04-27T00:45:33.533Z,74.96
2019-04-27T00:48:08.193Z,76.43
2019-04-27T00:50:43.798Z,77.18
2019-04-27T00:53:19.362Z,77.46
2019-04-27T00:56:19.387Z,77.35
2019-04-27T00:59:21.549Z,76.88
2019-04-27T01:02:23.203Z,77.52
2019-04-27T01:04:55.591Z,77.63
2019-04-27T01:07:25.721Z,77.84
2019-04-27T01:09:54.781Z,77.53
2019-04-27T01:12:25.309Z,77.22
2019-04-27T01:14:56.951Z,77.19
2019-04-27T01:17:25.988Z,75.81
2019-04-27T01:19:55.020Z,75.91
2019-04-27T01:22:24.270Z,76.46
2019-04-27T01:24:55.343Z,76.97
2019-04-27T01:27:43.835Z,78.24
2019-04-27T01:30:30.924Z,77.97
2019-04-27T01:33:03.609Z,77.74
2019-04-27T01:35:32.674Z,77.27
2019-04-27T01:38:01.957Z,77.33
2019-04-27T01:40:31.177Z,77.51
2019-04-27T01:43:02.398Z,77.33
2019-04-27T01:45:31.512Z,76.35
2019-04-27T01:48:03.854Z,76.53
2019-04-27T01:50:34.994Z,75.42
2019-04-27T01:53:03.735Z,74.56
2019-04-27T01:55:38.607Z,74.99
2019-04-27T01:58:10.707Z,75.64
2019-04-27T02:01:13.708Z,75.12
2019-04-27T02:04:17.151Z,75.31
2019-04-27T02:06:48.733Z,75.67
2019-04-27T02:09:19.414Z,75.70
2019-04-27T02:11:50.244Z,75.60
2019-04-27T02:14:23.166Z,75.43
2019-04-27T02:16:55.305Z,75.55
2019-04-27T02:19:29.721Z,75.54
2019-04-27T02:22:05.427Z,75.28
2019-04-27T02:24:34.540Z,76.06
2019-04-27T02:27:03.617Z,76.10
2019-04-27T02:29:39.075Z,76.08
2019-04-27T02:32:30.940Z,75.03
2019-04-27T02:35:02.175Z,75.16
2019-04-27T02:37:31.228Z,75.55
2019-04-27T02:40:00.496Z,75.77
2019-04-27T02:42:42.294Z,75.87
2019-04-27T02:45:11.416Z,76.49
2019-04-27T02:47:42.190Z,75.23
2019-04-27T02:50:11.258Z,75.92
2019-04-27T02:52:45.196Z,74.63
2019-04-27T02:55:24.945Z,74.89
2019-04-27T02:57:54.419Z,73.55
2019-04-27T03:00:23.791Z,74.71
2019-04-27T03:03:02.210Z,74.43
2019-04-27T03:05:30.440Z,73.90
2019-04-27T03:08:00.010Z,75.41
2019-04-27T03:10:34.038Z,75.53
2019-04-27T03:13:20.293Z,75.63
2019-04-27T03:16:04.550Z,74.93
2019-04-27T03:19:10.047Z,74.91
2019-04-27T03:21:29.840Z,75.98
2019-04-27T03:24:00.205Z,76.00
2019-04-27T03:26:44.199Z,74.61
2019-04-27T03:29:14.641Z,76.24
2019-04-27T03:31:47.715Z,76.52
2019-04-27T03:34:22.408Z,76.62
2019-04-27T03:36:51.705Z,77.93
2019-04-27T03:39:21.392Z,78.09
2019-04-27T03:41:52.980Z,77.50
2019-04-27T03:44:29.607Z,77.02
2019-04-27T03:46:59.589Z,76.11
2019-04-27T03:49:37.559Z,74.81
2019-04-27T03:52:09.629Z,75.65
2019-04-27T03:54:50.360Z,76.51
2019-04-27T03:57:36.074Z,77.09
2019-04-27T04:00:10.116Z,75.57
2019-04-27T04:02:45.378Z,75.90
2019-04-27T04:05:14.779Z,76.75
2019-04-27T04:07:53.155Z,77.22
2019-04-27T04:10:23.462Z,76.02
2019-04-27T04:13:22.663Z,75.78
2019-04-27T04:16:10.885Z,76.36
2019-04-27T04:19:01.475Z,76.97
2019-04-27T04:21:30.870Z,76.56
2019-04-27T04:24:02.964Z,77.22
2019-04-27T04:26:40.429Z,78.48
2019-04-27T04:29:10.627Z,79.24
2019-04-27T04:31:40.430Z,79.92
2019-04-27T04:34:12.146Z,78.83
2019-04-27T04:36:42.667Z,78.91
2019-04-27T04:39:13.870Z,79.23
2019-04-27T04:42:23.048Z,77.12
2019-04-27T04:45:01.183Z,75.61
2019-04-27T04:47:44.794Z,76.16
2019-04-27T04:50:15.235Z,76.45
2019-04-27T04:52:52.128Z,76.73
2019-04-27T04:55:25.821Z,75.90
2019-04-27T04:57:59.115Z,74.90
2019-04-27T05:00:29.967Z,75.04
2019-04-27T05:02:59.680Z,75.42
2019-04-27T05:05:31.949Z,75.46
2019-04-27T05:08:01.012Z,75.28
2019-04-27T05:10:31.288Z,75.59
2019-04-27T05:13:00.461Z,76.41
2019-04-27T05:15:35.821Z,77.11
2019-04-27T05:18:04.861Z,76.46
2019-04-27T05:20:44.223Z,76.11
2019-04-27T05:23:14.722Z,76.35
2019-04-27T05:25:49.397Z,75.42
2019-04-27T05:28:20.093Z,74.48
2019-04-27T05:30:49.148Z,74.30
2019-04-27T05:33:18.802Z,75.25
2019-04-27T05:35:51.906Z,75.75
2019-04-27T05:38:21.753Z,76.00
2019-04-27T05:41:01.135Z,77.42
2019-04-27T05:43:39.086Z,77.18
2019-04-27T05:46:39.495Z,77.69
2019-04-27T05:49:23.540Z,77.18
2019-04-27T05:51:52.653Z,78.15
2019-04-27T05:54:21.738Z,76.88
2019-04-27T05:56:50.796Z,75.06
2019-04-27T05:59:20.704Z,74.74
2019-04-27T06:01:49.836Z,74.23
2019-04-27T06:04:19.402Z,74.13
2019-04-27T06:06:50.423Z,74.96
2019-04-27T06:09:22.630Z,73.97
2019-04-27T06:11:54.393Z,74.15
2019-04-27T06:14:23.654Z,72.83
2019-04-27T06:16:56.992Z,73.87
2019-04-27T06:19:26.101Z,74.06
2019-04-27T06:21:59.475Z,73.04
2019-04-27T06:24:32.204Z,72.47
2019-04-27T06:27:01.271Z,73.22
2019-04-27T06:29:31.581Z,72.56
2019-04-27T06:32:00.642Z,71.32
2019-04-27T06:34:30.969Z,71.12
2019-04-27T06:37:02.885Z,71.77
2019-04-27T06:39:33.356Z,72.96
2019-04-27T06:42:16.051Z,72.72
2019-04-27T06:44:39.534Z,72.12
2019-04-27T06:47:11.063Z,72.93
2019-04-27T06:49:40.134Z,73.34
2019-04-27T06:52:09.186Z,73.10
2019-04-27T06:54:38.993Z,72.63
2019-04-27T06:57:09.215Z,71.90
2019-04-27T06:59:40.050Z,72.72
2019-04-27T07:02:13.169Z,71.46
2019-04-27T07:04:42.355Z,72.41
2019-04-27T07:07:11.457Z,71.86
2019-04-27T07:09:40.660Z,71.61
2019-04-27T07:12:10.073Z,71.74
2019-04-27T07:14:51.766Z,70.93
2019-04-27T07:17:11.996Z,69.96
2019-04-27T07:19:42.320Z,69.74
2019-04-27T07:22:13.983Z,69.79
2019-04-27T07:24:44.791Z,67.95
2019-04-27T07:27:13.958Z,68.36
2019-04-27T07:29:44.842Z,67.74
2019-04-27T07:32:14.162Z,67.44
2019-04-27T07:34:45.156Z,66.86
2019-04-27T07:37:14.219Z,66.99
2019-04-27T07:39:49.138Z,67.05
2019-04-27T07:42:17.322Z,67.29
2019-04-27T07:45:00.925Z,66.29
2019-04-27T07:47:35.063Z,66.49
2019-04-27T07:50:06.101Z,66.35
2019-04-27T07:52:40.410Z,65.66
2019-04-27T07:55:14.157Z,65.93
2019-04-27T07:57:43.250Z,65.72
2019-04-27T08:00:19.179Z,65.94
2019-04-27T08:02:49.924Z,65.69
2019-04-27T08:05:19.274Z,63.99
2019-04-27T08:07:49.112Z,64.63
2019-04-27T08:10:21.058Z,64.40
2019-04-27T08:12:50.523Z,64.68
2019-04-27T08:15:19.713Z,63.95
2019-04-27T08:17:49.295Z,65.20
2019-04-27T08:20:21.185Z,64.43
2019-04-27T08:23:01.305Z,64.97
2019-04-27T08:25:30.785Z,65.53
2019-04-27T08:28:21.669Z,66.53
2019-04-27T08:31:16.415Z,66.37
2019-04-27T08:33:51.369Z,66.47
2019-04-27T08:36:25.136Z,66.60
2019-04-27T08:38:58.963Z,66.61
2019-04-27T08:41:39.531Z,65.97
2019-04-27T08:44:09.802Z,65.87
2019-04-27T08:46:38.932Z,66.00
2019-04-27T08:49:10.107Z,65.47
2019-04-27T08:51:41.498Z,66.24
2019-04-27T08:54:11.764Z,66.47
2019-04-27T08:56:43.285Z,68.35
2019-04-27T08:59:13.627Z,68.29
2019-04-27T09:01:43.851Z,69.12
2019-04-27T09:04:16.269Z,69.08
2019-04-27T09:06:49.748Z,68.18
2019-04-27T09:09:42.330Z,67.01
2019-04-27T09:12:53.676Z,67.17
2019-04-27T09:15:29.243Z,66.80
2019-04-27T09:18:01.982Z,67.75
2019-04-27T09:20:34.849Z,68.06
2019-04-27T09:23:03.938Z,68.50
2019-04-27T09:25:33.046Z,67.16
2019-04-27T09:28:02.419Z,67.55
2019-04-27T09:30:32.627Z,66.83
2019-04-27T09:33:03.430Z,67.93
2019-04-27T09:35:32.468Z,67.75
2019-04-27T09:38:02.812Z,67.07
2019-04-27T09:40:40.593Z,66.78
2019-04-27T09:43:09.639Z,67.61
2019-04-27T09:45:40.794Z,67.10
2019-04-27T09:48:14.133Z,66.69
2019-04-27T09:50:48.262Z,66.93
2019-04-27T09:53:24.672Z,67.41
2019-04-27T09:55:53.680Z,65.90
2019-04-27T09:58:25.585Z,65.44
2019-04-27T10:00:56.678Z,64.91
2019-04-27T10:03:26.668Z,65.01
2019-04-27T10:05:57.082Z,63.93
2019-04-27T10:08:26.573Z,64.27
2019-04-27T10:10:58.103Z,64.41
2019-04-27T10:13:27.653Z,64.67
2019-04-27T10:16:00.620Z,64.42
2019-04-27T10:18:29.923Z,64.31
2019-04-27T10:21:02.091Z,64.51
2019-04-27T10:23:29.829Z,64.12
2019-04-27T10:25:58.897Z,64.22
2019-04-27T10:28:27.954Z,64.62
2019-04-27T10:30:58.573Z,64.98
2019-04-27T10:33:28.965Z,64.98
2019-04-27T10:36:00.152Z,64.68
2019-04-27T10:38:31.557Z,65.22
2019-04-27T10:41:00.764Z,64.46
2019-04-27T10:43:30.157Z,63.83
2019-04-27T10:45:59.215Z,64.68
2019-04-27T10:48:28.242Z,64.39
2019-04-27T10:50:58.571Z,64.42
2019-04-27T10:53:29.160Z,64.90
2019-04-27T10:55:58.292Z,65.05
2019-04-27T10:58:27.557Z,65.73
2019-04-27T11:00:58.623Z,65.77
2019-04-27T11:03:49.899Z,65.52
2019-04-27T11:06:41.510Z,64.90
2019-04-27T11:09:16.174Z,63.71
2019-04-27T11:11:48.369Z,63.17
2019-04-27T11:14:18.733Z,62.23
2019-04-27T11:16:48.191Z,62.24
2019-04-27T11:19:19.073Z,62.45
2019-04-27T11:21:49.229Z,62.44
2019-04-27T11:24:21.761Z,62.26
2019-04-27T11:26:53.912Z,61.96
2019-04-27T11:29:23.127Z,62.32
2019-04-27T11:31:55.512Z,62.75
2019-04-27T11:34:25.495Z,62.97
2019-04-27T11:37:15.428Z,62.80
2019-04-27T11:39:46.128Z,64.13
2019-04-27T11:42:15.374Z,64.20
2019-04-27T11:44:44.430Z,63.72
2019-04-27T11:47:13.489Z,63.86
2019-04-27T11:49:42.566Z,63.36
2019-04-27T11:52:11.585Z,63.52
2019-04-27T11:54:41.382Z,63.82
2019-04-27T11:57:13.186Z,64.65
2019-04-27T11:59:45.606Z,63.99
2019-04-27T12:02:17.835Z,63.28
2019-04-27T12:04:46.930Z,63.78
2019-04-27T12:07:16.014Z,63.43
2019-04-27T12:09:46.237Z,63.36
2019-04-27T12:12:21.697Z,63.73
2019-04-27T12:14:49.859Z,63.74
2019-04-27T12:17:19.000Z,63.54
2019-04-27T12:19:53.843Z,63.76
2019-04-27T12:22:28.235Z,63.65
2019-04-27T12:25:00.156Z,64.40
2019-04-27T12:27:48.878Z,64.58
2019-04-27T12:30:26.161Z,64.14
2019-04-27T12:32:55.922Z,63.49
2019-04-27T12:35:28.090Z,64.84
2019-04-27T12:38:01.268Z,66.53
2019-04-27T12:40:33.591Z,65.31
2019-04-27T12:43:08.008Z,65.37
2019-04-27T12:45:43.448Z,64.87
2019-04-27T12:48:11.237Z,63.19
2019-04-27T12:50:40.404Z,61.71
2019-04-27T12:53:14.147Z,61.58
2019-04-27T12:56:12.533Z,61.60
2019-04-27T12:59:07.007Z,61.80
2019-04-27T13:01:42.101Z,62.31
2019-04-27T13:04:11.262Z,61.66
2019-04-27T13:06:40.345Z,59.83
2019-04-27T13:09:12.505Z,59.84
2019-04-27T13:11:41.684Z,60.83
2019-04-27T13:14:11.187Z,59.29
2019-04-27T13:16:42.655Z,58.42
2019-04-27T13:19:11.754Z,59.29
2019-04-27T13:21:40.788Z,59.89
2019-04-27T13:24:09.851Z,60.65
2019-04-27T13:26:39.236Z,61.43
2019-04-27T13:29:11.394Z,61.80
2019-04-27T13:31:44.734Z,62.85
2019-04-27T13:34:18.621Z,61.97
2019-04-27T13:36:47.127Z,60.00
2019-04-27T13:39:19.255Z,59.67
2019-04-27T13:41:48.307Z,59.29
2019-04-27T13:44:17.379Z,59.68
2019-04-27T13:47:06.121Z,60.01
2019-04-27T13:49:52.403Z,59.92
2019-04-27T13:52:26.797Z,60.62
2019-04-27T13:54:56.689Z,61.21
2019-04-27T13:57:26.559Z,61.59
2019-04-27T13:59:58.832Z,61.65
2019-04-27T14:02:35.206Z,61.57
2019-04-27T14:05:04.315Z,62.70
2019-04-27T14:07:33.771Z,62.72
2019-04-27T14:10:05.675Z,63.07
2019-04-27T14:12:38.638Z,62.90
2019-04-27T14:15:08.718Z,62.76
2019-04-27T14:17:39.224Z,64.34
2019-04-27T14:20:11.733Z,65.08
2019-04-27T14:22:42.552Z,66.56
2019-04-27T14:25:11.789Z,67.28
2019-04-27T14:27:42.420Z,68.71
2019-04-27T14:30:15.327Z,70.53
2019-04-27T14:32:47.495Z,74.79
2019-04-27T14:35:24.707Z,78.45
2019-04-27T14:38:00.047Z,78.45
2019-04-27T14:40:30.628Z,78.85
2019-04-27T14:42:59.765Z,80.19
2019-04-27T14:45:29.160Z,79.37
2019-04-27T14:47:59.672Z,79.74
2019-04-27T14:50:33.922Z,79.70
2019-04-27T14:53:03.004Z,80.14
2019-04-27T14:55:33.707Z,78.61
2019-04-27T14:58:05.174Z,79.26
2019-04-27T15:00:34.279Z,78.02
2019-04-27T15:03:06.847Z,76.55
2019-04-27T15:05:37.745Z,76.51
2019-04-27T15:08:10.800Z,75.22
2019-04-27T15:10:46.580Z,74.62
2019-04-27T15:13:17.317Z,74.31
2019-04-27T15:15:46.576Z,73.59
2019-04-27T15:18:15.691Z,71.04
2019-04-27T15:20:46.601Z,73.09
2019-04-27T15:23:15.824Z,73.00
2019-04-27T15:25:47.120Z,73.38
2019-04-27T15:28:18.773Z,73.13
2019-04-27T15:31:09.899Z,73.42
2019-04-27T15:34:01.426Z,74.28
2019-04-27T15:36:52.835Z,73.79
2019-04-27T15:39:40.251Z,70.47
2019-04-27T15:42:10.971Z,68.84
2019-04-27T15:44:41.072Z,64.76
2019-04-27T15:47:12.846Z,64.58
2019-04-27T15:49:49.826Z,64.83
2019-04-27T15:52:14.600Z,65.58
2019-04-27T15:54:43.647Z,64.75
2019-04-27T15:57:13.820Z,65.26
2019-04-27T15:59:46.052Z,65.04
2019-04-27T16:02:18.553Z,65.13
2019-04-27T16:04:49.953Z,65.18
2019-04-27T16:07:24.888Z,66.34
2019-04-27T16:09:54.456Z,67.47
2019-04-27T16:12:24.804Z,66.12
2019-04-27T16:14:54.068Z,67.04
2019-04-27T16:17:23.435Z,67.57
2019-04-27T16:19:57.998Z,65.90
2019-04-27T16:22:27.789Z,66.71
2019-04-27T16:25:03.952Z,65.91
2019-04-27T16:27:34.327Z,64.60
2019-04-27T16:30:09.866Z,63.75
2019-04-27T16:32:40.307Z,62.93
2019-04-27T16:35:21.615Z,62.33
2019-04-27T16:37:59.994Z,63.63
2019-04-27T16:40:30.146Z,62.85
2019-04-27T16:43:01.788Z,61.29
2019-04-27T16:45:30.840Z,61.33
2019-04-27T16:48:02.038Z,60.68
2019-04-27T16:50:32.024Z,61.15
2019-04-27T16:53:01.269Z,60.15
2019-04-27T16:55:34.260Z,61.57
2019-04-27T16:58:02.174Z,60.14
2019-04-27T17:00:31.406Z,60.43
2019-04-27T17:03:03.312Z,60.07
2019-04-27T17:05:36.261Z,59.69
2019-04-27T17:08:14.320Z,59.67
2019-04-27T17:10:42.145Z,59.22
2019-04-27T17:13:15.462Z,57.73
2019-04-27T17:16:11.635Z,56.05
2019-04-27T17:18:45.488Z,54.71
2019-04-27T17:21:21.153Z,56.92
2019-04-27T17:24:03.034Z,56.76
2019-04-27T17:26:39.691Z,57.06
2019-04-27T17:29:16.793Z,56.71
2019-04-27T17:31:50.558Z,57.74
2019-04-27T17:34:25.306Z,57.03
2019-04-27T17:36:54.738Z,57.46
2019-04-27T17:39:23.683Z,57.33
2019-04-27T17:41:58.632Z,58.35
2019-04-27T17:44:28.850Z,64.31
2019-04-27T17:46:58.043Z,67.29
2019-04-27T17:49:28.063Z,70.04
2019-04-27T17:52:02.521Z,72.45
2019-04-27T17:54:31.538Z,73.38
2019-04-27T17:57:00.590Z,73.37
2019-04-27T17:59:29.626Z,74.17
2019-04-27T18:02:04.357Z,75.70
2019-04-27T18:04:32.848Z,76.48
2019-04-27T18:07:03.344Z,75.06
2019-04-27T18:09:39.980Z,76.49
2019-04-27T18:12:14.452Z,76.05
2019-04-27T18:14:41.320Z,75.86
2019-04-27T18:17:13.109Z,76.48
2019-04-27T18:19:51.647Z,76.09
2019-04-27T18:22:23.204Z,75.50
2019-04-27T18:25:09.338Z,71.56
2019-04-27T18:27:59.358Z,70.67
2019-04-27T18:30:55.125Z,68.77
2019-04-27T18:33:24.561Z,71.63
2019-04-27T18:35:58.861Z,74.62
2019-04-27T18:38:25.277Z,73.48
2019-04-27T18:40:56.521Z,75.14
2019-04-27T18:43:28.674Z,74.18
2019-04-27T18:45:58.723Z,74.13
2019-04-27T18:48:37.746Z,74.84
2019-04-27T18:51:13.878Z,75.49
2019-04-27T18:53:43.201Z,76.35
2019-04-27T18:56:12.242Z,76.36
2019-04-27T18:58:42.394Z,77.50
2019-04-27T19:01:16.125Z,76.07
2019-04-27T19:03:45.189Z,76.56
2019-04-27T19:06:14.251Z,77.11
2019-04-27T19:08:43.319Z,77.28
2019-04-27T19:11:12.382Z,78.11
2019-04-27T19:13:41.454Z,78.75
2019-04-27T19:16:10.863Z,79.86
2019-04-27T19:18:41.515Z,79.31
2019-04-27T19:21:20.188Z,80.21
2019-04-27T19:23:44.736Z,78.40
2019-04-27T19:26:25.766Z,78.01
2019-04-27T19:29:26.153Z,76.54
2019-04-27T19:31:58.746Z,75.70
2019-04-27T19:34:28.631Z,77.13
2019-04-27T19:37:02.380Z,75.34
2019-04-27T19:39:31.585Z,74.90
2019-04-27T19:42:03.812Z,75.27
2019-04-27T19:44:35.103Z,74.93
2019-04-27T19:47:05.863Z,72.98
2019-04-27T19:49:38.808Z,74.40
2019-04-27T19:52:09.722Z,75.14
2019-04-27T19:54:40.809Z,75.48
2019-04-27T19:57:13.076Z,75.06
2019-04-27T19:59:50.157Z,74.72
2019-04-27T20:02:22.193Z,74.69
2019-04-27T20:05:00.670Z,75.32
2019-04-27T20:07:29.758Z,76.03
2019-04-27T20:10:02.067Z,75.76
2019-04-27T20:12:31.552Z,75.49
2019-04-27T20:15:03.279Z,76.19
2019-04-27T20:17:43.274Z,76.34
2019-04-27T20:20:04.616Z,77.15
2019-04-27T20:22:38.284Z,78.04
2019-04-27T20:25:09.124Z,78.55
2019-04-27T20:27:48.327Z,79.04
2019-04-27T20:30:15.344Z,78.65
2019-04-27T20:32:44.473Z,78.94
2019-04-27T20:35:14.042Z,78.20
2019-04-27T20:37:45.300Z,77.90
2019-04-27T20:40:14.410Z,77.78
2019-04-27T20:42:47.703Z,78.21
2019-04-27T20:45:16.766Z,77.23
2019-04-27T20:47:46.280Z,75.48
2019-04-27T20:50:18.741Z,75.89
2019-04-27T20:52:55.959Z,75.56
2019-04-27T20:55:25.032Z,75.63
2019-04-27T20:58:01.794Z,74.18
2019-04-27T21:00:25.371Z,75.03
2019-04-27T21:03:03.784Z,74.68
2019-04-27T21:05:55.657Z,74.79
2019-04-27T21:08:25.427Z,75.24
2019-04-27T21:10:56.215Z,75.94
2019-04-27T21:13:25.480Z,76.18
2019-04-27T21:15:54.549Z,75.50
2019-04-27T21:18:26.581Z,75.57
2019-04-27T21:20:55.615Z,75.36
2019-04-27T21:23:25.674Z,75.32
2019-04-27T21:25:54.728Z,75.91
2019-04-27T21:28:23.827Z,75.90
2019-04-27T21:30:52.915Z,75.30
2019-04-27T21:33:23.345Z,76.16
2019-04-27T21:35:56.995Z,76.35
2019-04-27T21:38:26.248Z,76.83
2019-04-27T21:40:55.299Z,76.33
2019-04-27T21:43:24.351Z,76.59
2019-04-27T21:45:54.480Z,76.22
2019-04-27T21:48:31.342Z,75.95
2019-04-27T21:51:01.523Z,75.64
2019-04-27T21:53:41.138Z,76.12
2019-04-27T21:56:11.260Z,75.37
2019-04-27T21:58:44.779Z,74.53
2019-04-27T22:01:38.604Z,74.59
2019-04-27T22:04:07.944Z,74.58
2019-04-27T22:06:38.486Z,74.57
2019-04-27T22:09:11.855Z,73.25
2019-04-27T22:11:42.444Z,72.80
2019-04-27T22:14:14.705Z,73.24
2019-04-27T22:16:46.431Z,73.45
2019-04-27T22:19:15.493Z,72.91
2019-04-27T22:21:44.532Z,72.97
2019-04-27T22:24:21.895Z,73.25
2019-04-27T22:26:53.656Z,72.49
2019-04-27T22:29:24.532Z,73.58
2019-04-27T22:31:53.819Z,73.00
2019-04-27T22:34:31.096Z,72.53
2019-04-27T22:37:03.055Z,72.98
2019-04-27T22:39:50.962Z,72.92
2019-04-27T22:42:36.109Z,73.50
2019-04-27T22:45:15.388Z,74.89
2019-04-27T22:47:44.484Z,75.04
2019-04-27T22:50:21.035Z,76.52
2019-04-27T22:52:50.167Z,75.79
2019-04-27T22:55:22.005Z,76.83
2019-04-27T22:57:58.248Z,76.76
2019-04-27T23:00:58.807Z,75.83
2019-04-27T23:03:34.824Z,76.40
2019-04-27T23:06:06.017Z,76.88
2019-04-27T23:08:35.176Z,75.91
2019-04-27T23:11:04.558Z,75.74
2019-04-27T23:13:34.801Z,75.17
2019-04-27T23:16:05.830Z,75.46
2019-04-27T23:18:41.399Z,74.89
2019-04-27T23:21:11.776Z,74.27
2019-04-27T23:23:41.437Z,73.79
2019-04-27T23:26:11.962Z,73.14
2019-04-27T23:28:43.062Z,73.20
2019-04-27T23:31:37.750Z,73.13
2019-04-27T23:34:11.662Z,73.25
2019-04-27T23:36:42.371Z,73.92
2019-04-27T23:39:11.995Z,74.41
2019-04-27T23:41:41.217Z,73.12
2019-04-27T23:44:10.276Z,73.12
2019-04-27T23:46:39.383Z,72.22
2019-04-27T23:49:08.482Z,72.21
2019-04-27T23:51:59.266Z,73.00
2019-04-27T23:54:28.447Z,73.13
2019-04-27T23:56:57.863Z,74.92
2019-04-27T23:59:26.949Z,75.02
